createdAt,value
2022-09-13T00:01:25.948Z,19.10
2022-09-13T00:03:54.391Z,16.20
2022-09-13T00:06:24.247Z,16.20
2022-09-13T00:08:54.557Z,21.70
2022-09-13T00:11:26.320Z,23.80
2022-09-13T00:13:58.960Z,22.60
2022-09-13T00:16:29.785Z,24.10
2022-09-13T00:19:01.438Z,23.60
2022-09-13T00:21:30.385Z,22.00
2022-09-13T00:23:59.882Z,20.60
2022-09-13T00:26:29.760Z,20.80
2022-09-13T00:28:59.603Z,20.70
2022-09-13T00:31:29.645Z,21.90
2022-09-13T00:34:01.348Z,21.40
2022-09-13T00:36:29.801Z,23.40
2022-09-13T00:39:00.870Z,27.60
2022-09-13T00:41:30.655Z,19.90
2022-09-13T00:44:02.591Z,21.00
2022-09-13T00:46:38.304Z,22.20
2022-09-13T00:49:18.887Z,22.20
2022-09-13T00:52:00.660Z,21.80
2022-09-13T00:54:40.875Z,21.50
2022-09-13T00:57:12.070Z,25.60
2022-09-13T00:59:49.328Z,22.10
2022-09-13T01:02:18.232Z,21.30
2022-09-13T01:04:47.166Z,22.50
2022-09-13T01:07:18.549Z,24.50
2022-09-13T01:09:50.838Z,26.60
2022-09-13T01:12:32.533Z,23.40
2022-09-13T01:15:04.469Z,20.90
2022-09-13T01:17:35.478Z,21.40
2022-09-13T01:20:06.787Z,25.90
2022-09-13T01:22:44.828Z,20.10
2022-09-13T01:25:31.667Z,18.40
2022-09-13T01:28:24.182Z,16.40
2022-09-13T01:31:35.649Z,20.10
2022-09-13T01:34:19.087Z,19.50
2022-09-13T01:37:13.639Z,17.90
2022-09-13T01:40:01.827Z,20.10
2022-09-13T01:42:42.338Z,16.70
2022-09-13T01:45:11.207Z,16.00
2022-09-13T01:47:50.613Z,19.20
2022-09-13T01:50:44.926Z,16.00
2022-09-13T01:53:39.508Z,17.00
2022-09-13T01:56:21.621Z,15.30
2022-09-13T01:59:10.980Z,16.50
2022-09-13T02:01:50.895Z,15.00
2022-09-13T02:04:28.332Z,15.20
2022-09-13T02:07:13.921Z,12.00
2022-09-13T02:09:48.110Z,14.80
2022-09-13T02:12:29.535Z,11.20
2022-09-13T02:15:07.937Z,13.10
2022-09-13T02:17:46.450Z,11.20
2022-09-13T02:20:30.118Z,13.00
2022-09-13T02:23:05.254Z,14.20
2022-09-13T02:25:37.566Z,13.00
2022-09-13T02:28:10.980Z,11.80
2022-09-13T02:30:47.074Z,13.20
2022-09-13T02:36:02.947Z,12.80
2022-09-13T02:38:39.599Z,13.20
2022-09-13T02:41:18.195Z,14.00
2022-09-13T02:43:53.901Z,11.90
2022-09-13T02:46:50.092Z,11.30
2022-09-13T02:49:24.953Z,11.80
2022-09-13T02:52:04.766Z,11.30
2022-09-13T02:54:50.257Z,12.40
2022-09-13T02:57:27.737Z,12.40
2022-09-13T02:59:56.105Z,13.20
2022-09-13T03:02:33.557Z,16.20
2022-09-13T03:05:03.836Z,15.40
2022-09-13T03:07:32.261Z,20.40
2022-09-13T03:10:14.002Z,19.60
2022-09-13T03:13:01.135Z,21.20
2022-09-13T03:15:38.387Z,19.80
2022-09-13T03:18:33.439Z,21.10
2022-09-13T03:21:23.607Z,18.80
2022-09-13T03:24:10.610Z,19.00
2022-09-13T03:26:45.663Z,21.20
2022-09-13T03:29:32.020Z,22.00
2022-09-13T03:32:09.287Z,21.20
2022-09-13T03:35:19.251Z,22.00
2022-09-13T03:38:12.781Z,20.90
2022-09-13T03:40:50.363Z,23.20
2022-09-13T03:43:26.253Z,22.60
2022-09-13T03:46:01.684Z,23.70
2022-09-13T03:48:32.247Z,20.50
2022-09-13T03:51:01.622Z,19.90
2022-09-13T03:53:32.735Z,21.30
2022-09-13T03:56:01.238Z,16.30
2022-09-13T03:58:29.991Z,23.80
2022-09-13T04:00:58.887Z,16.10
2022-09-13T04:03:27.840Z,20.40
2022-09-13T04:05:56.778Z,13.80
2022-09-13T04:08:25.251Z,14.50
2022-09-13T04:10:53.615Z,12.80
2022-09-13T04:13:23.563Z,11.00
2022-09-13T04:15:52.011Z,11.90
2022-09-13T04:18:21.382Z,17.70
2022-09-13T04:20:58.813Z,17.20
2022-09-13T04:23:30.623Z,17.40
2022-09-13T04:26:06.982Z,17.10
2022-09-13T04:28:35.667Z,17.60
2022-09-13T04:31:04.047Z,18.20
2022-09-13T04:33:32.516Z,18.00
2022-09-13T04:36:01.410Z,17.80
2022-09-13T04:38:32.451Z,18.90
2022-09-13T04:41:00.906Z,16.90
2022-09-13T04:43:29.826Z,16.20
2022-09-13T04:46:01.818Z,18.00
2022-09-13T04:48:30.299Z,16.10
2022-09-13T04:51:07.347Z,14.00
2022-09-13T04:53:36.433Z,14.00
2022-09-13T04:56:06.275Z,13.80
2022-09-13T04:58:34.793Z,13.20
2022-09-13T05:01:09.148Z,11.60
2022-09-13T05:03:39.559Z,9.60
2022-09-13T05:06:13.782Z,10.60
2022-09-13T05:08:42.225Z,8.60
2022-09-13T05:11:11.556Z,10.80
2022-09-13T05:13:40.300Z,11.30
2022-09-13T05:16:09.512Z,10.70
2022-09-13T05:18:41.956Z,11.50
2022-09-13T05:21:14.633Z,10.60
2022-09-13T05:23:44.112Z,11.60
2022-09-13T05:26:12.511Z,8.10
2022-09-13T05:28:40.934Z,13.70
2022-09-13T05:31:34.385Z,9.70
2022-09-13T05:34:12.847Z,9.40
2022-09-13T05:36:42.738Z,9.40
2022-09-13T05:39:31.822Z,10.40
2022-09-13T05:42:05.217Z,10.70
2022-09-13T05:44:33.707Z,11.20
2022-09-13T05:47:02.477Z,11.00
2022-09-13T05:49:30.984Z,11.50
2022-09-13T05:51:59.561Z,11.60
2022-09-13T05:54:28.574Z,11.50
2022-09-13T05:56:57.725Z,12.60
2022-09-13T05:59:26.668Z,10.20
2022-09-13T06:01:55.738Z,10.60
2022-09-13T06:04:25.273Z,10.70
2022-09-13T06:06:53.687Z,11.70
2022-09-13T06:09:22.531Z,11.60
2022-09-13T06:11:50.900Z,14.50
2022-09-13T06:14:19.287Z,14.10
2022-09-13T06:16:47.760Z,11.70
2022-09-13T06:19:16.407Z,12.50
2022-09-13T06:21:44.762Z,12.30
2022-09-13T06:24:13.343Z,13.50
2022-09-13T06:26:42.202Z,11.90
2022-09-13T06:29:13.310Z,14.90
2022-09-13T06:31:45.591Z,11.50
2022-09-13T06:34:16.665Z,13.90
2022-09-13T06:36:45.008Z,14.00
2022-09-13T06:39:13.734Z,13.20
2022-09-13T06:41:42.221Z,13.10
2022-09-13T06:44:10.630Z,12.40
2022-09-13T06:46:39.222Z,12.50
2022-09-13T06:49:10.228Z,12.70
2022-09-13T06:51:38.968Z,10.50
2022-09-13T06:54:07.460Z,13.50
2022-09-13T06:56:38.420Z,12.90
2022-09-13T06:59:10.481Z,15.00
2022-09-13T07:01:43.995Z,12.70
2022-09-13T07:04:16.006Z,12.20
2022-09-13T07:06:48.213Z,13.20
2022-09-13T07:09:21.899Z,10.30
2022-09-13T07:11:53.734Z,11.50
2022-09-13T07:14:25.137Z,12.40
2022-09-13T07:16:56.290Z,10.50
2022-09-13T07:19:27.794Z,10.60
2022-09-13T07:21:57.877Z,10.20
2022-09-13T07:24:27.724Z,12.60
2022-09-13T07:26:56.766Z,11.00
2022-09-13T07:29:25.262Z,12.80
2022-09-13T07:31:55.325Z,10.80
2022-09-13T07:34:26.033Z,10.40
2022-09-13T07:36:55.148Z,10.10
2022-09-13T07:39:24.727Z,11.60
2022-09-13T07:41:54.116Z,13.80
2022-09-13T07:44:23.180Z,11.80
2022-09-13T07:46:52.156Z,11.20
2022-09-13T07:49:21.917Z,12.00
2022-09-13T07:51:51.827Z,12.30
2022-09-13T07:54:21.320Z,11.70
2022-09-13T07:56:52.851Z,11.00
2022-09-13T07:59:21.660Z,11.30
2022-09-13T08:01:52.654Z,9.50
2022-09-13T08:04:25.976Z,9.90
2022-09-13T08:06:55.017Z,8.10
2022-09-13T08:09:24.668Z,13.20
2022-09-13T08:11:53.450Z,10.30
2022-09-13T08:14:24.639Z,9.40
2022-09-13T08:16:57.594Z,8.80
2022-09-13T08:19:26.699Z,11.10
2022-09-13T08:21:55.020Z,9.90
2022-09-13T08:24:24.267Z,12.50
2022-09-13T08:26:55.628Z,11.30
2022-09-13T08:29:25.692Z,9.30
2022-09-13T08:31:55.296Z,8.70
2022-09-13T08:34:23.830Z,9.30
2022-09-13T08:36:52.242Z,8.40
2022-09-13T08:39:21.440Z,7.50
2022-09-13T08:42:07.520Z,8.90
2022-09-13T08:44:48.319Z,7.30
2022-09-13T08:47:51.352Z,8.30
2022-09-13T08:50:24.080Z,9.50
2022-09-13T08:53:32.011Z,9.20
2022-09-13T08:56:24.152Z,7.70
2022-09-13T08:58:56.180Z,9.70
2022-09-13T09:01:33.827Z,8.60
2022-09-13T09:04:20.482Z,9.00
2022-09-13T09:06:49.908Z,6.90
2022-09-13T09:09:22.507Z,9.40
2022-09-13T09:11:59.831Z,8.00
2022-09-13T09:14:36.487Z,7.20
2022-09-13T09:17:14.863Z,9.80
2022-09-13T09:19:55.894Z,9.30
2022-09-13T09:22:33.051Z,7.10
2022-09-13T09:25:02.457Z,7.70
2022-09-13T09:27:32.681Z,7.90
2022-09-13T09:30:02.266Z,9.10
2022-09-13T09:33:21.017Z,6.70
2022-09-13T09:35:57.447Z,10.20
2022-09-13T09:38:41.914Z,10.30
2022-09-13T09:41:14.080Z,8.80
2022-09-13T09:43:53.238Z,7.50
2022-09-13T09:46:29.181Z,9.40
2022-09-13T09:49:27.863Z,8.50
2022-09-13T09:51:58.455Z,11.50
2022-09-13T09:54:30.292Z,9.30
2022-09-13T09:56:58.792Z,10.00
2022-09-13T09:59:32.827Z,9.50
2022-09-13T10:02:14.896Z,7.90
2022-09-13T10:04:54.062Z,11.00
2022-09-13T10:07:36.199Z,7.00
2022-09-13T10:10:31.279Z,12.00
2022-09-13T10:13:01.262Z,7.60
2022-09-13T10:15:34.890Z,9.70
2022-09-13T10:18:03.775Z,9.30
2022-09-13T10:20:34.288Z,12.40
2022-09-13T10:23:14.968Z,8.40
2022-09-13T10:25:57.783Z,9.80
2022-09-13T10:28:27.429Z,8.40
2022-09-13T10:31:01.019Z,9.80
2022-09-13T10:33:39.908Z,10.10
2022-09-13T10:39:23.307Z,9.90
2022-09-13T10:42:08.722Z,8.60
2022-09-13T10:44:58.270Z,8.40
2022-09-13T10:47:48.869Z,8.60
2022-09-13T10:50:29.700Z,9.70
2022-09-13T10:53:00.988Z,9.20
2022-09-13T10:55:44.107Z,11.30
2022-09-13T10:58:16.940Z,6.50
2022-09-13T11:01:13.258Z,8.60
2022-09-13T11:03:53.359Z,10.50
2022-09-13T11:06:48.759Z,8.70
2022-09-13T11:12:20.625Z,7.20
2022-09-13T11:15:03.251Z,8.80
2022-09-13T11:17:53.242Z,9.40
2022-09-13T11:20:51.240Z,7.40
2022-09-13T11:23:39.306Z,7.40
2022-09-13T11:26:38.290Z,9.40
2022-09-13T11:29:23.253Z,7.80
2022-09-13T11:32:04.222Z,9.80
2022-09-13T11:34:33.781Z,8.40
2022-09-13T11:37:26.422Z,8.10
2022-09-13T11:40:10.873Z,9.20
2022-09-13T11:42:51.142Z,8.10
2022-09-13T11:45:42.308Z,8.70
2022-09-13T11:48:27.781Z,6.60
2022-09-13T11:51:10.262Z,9.10
2022-09-13T11:53:56.712Z,8.10
2022-09-13T11:56:36.277Z,9.10
2022-09-13T11:59:19.837Z,9.10
2022-09-13T12:02:01.425Z,10.30
2022-09-13T12:04:40.353Z,7.80
2022-09-13T12:07:19.729Z,7.90
2022-09-13T12:10:06.571Z,10.90
2022-09-13T12:12:37.688Z,9.00
2022-09-13T12:15:17.337Z,8.90
2022-09-13T12:18:00.637Z,9.70
2022-09-13T12:20:40.352Z,11.30
2022-09-13T12:23:19.701Z,9.00
2022-09-13T12:26:06.360Z,10.80
2022-09-13T12:28:44.378Z,9.50
2022-09-13T12:31:22.582Z,10.30
2022-09-13T12:33:51.357Z,8.50
2022-09-13T12:36:35.209Z,9.70
2022-09-13T12:39:25.227Z,8.90
2022-09-13T12:42:18.976Z,9.10
2022-09-13T12:45:13.745Z,8.60
2022-09-13T12:48:08.044Z,10.40
2022-09-13T12:51:01.090Z,10.00
2022-09-13T12:54:07.996Z,11.00
2022-09-13T12:57:03.651Z,8.70
2022-09-13T12:59:43.180Z,9.30
2022-09-13T13:02:43.200Z,9.40
2022-09-13T13:05:31.406Z,9.10
2022-09-13T13:08:23.781Z,10.50
2022-09-13T13:11:12.499Z,9.40
2022-09-13T13:13:53.973Z,9.10
2022-09-13T13:16:25.184Z,8.10
2022-09-13T13:18:56.050Z,10.50
2022-09-13T13:21:31.021Z,8.20
2022-09-13T13:24:17.618Z,9.10
2022-09-13T13:26:58.032Z,9.30
2022-09-13T13:29:33.987Z,7.00
2022-09-13T13:32:05.276Z,9.00
2022-09-13T13:34:47.890Z,9.30
2022-09-13T13:37:19.040Z,8.50
2022-09-13T13:39:50.108Z,9.70
2022-09-13T13:42:38.768Z,9.10
2022-09-13T13:45:28.635Z,8.70
2022-09-13T13:48:16.083Z,10.10
2022-09-13T13:51:11.188Z,9.00
2022-09-13T13:53:43.037Z,7.00
2022-09-13T13:56:20.250Z,8.70
2022-09-13T13:59:07.023Z,11.80
2022-09-13T14:01:39.910Z,10.50
2022-09-13T14:04:47.616Z,9.80
2022-09-13T14:07:46.727Z,11.60
2022-09-13T14:10:27.214Z,8.30
2022-09-13T14:13:07.910Z,8.50
2022-09-13T14:16:08.758Z,8.50
2022-09-13T14:18:59.177Z,7.10
2022-09-13T14:21:31.288Z,8.60
2022-09-13T14:24:19.406Z,7.50
2022-09-13T14:26:52.370Z,7.50
2022-09-13T14:29:26.030Z,8.90
2022-09-13T14:32:05.031Z,7.30
2022-09-13T14:34:39.618Z,6.80
2022-09-13T14:37:19.215Z,8.60
2022-09-13T14:40:19.539Z,11.60
2022-09-13T14:42:54.096Z,8.20
2022-09-13T14:45:31.716Z,8.10
2022-09-13T14:48:04.679Z,8.30
2022-09-13T14:50:47.928Z,7.10
2022-09-13T14:53:21.780Z,10.90
2022-09-13T14:55:56.010Z,8.00
2022-09-13T14:58:29.568Z,7.30
2022-09-13T15:01:07.319Z,14.30
2022-09-13T15:03:37.175Z,7.60
2022-09-13T15:06:05.873Z,9.60
2022-09-13T15:08:35.069Z,9.10
2022-09-13T15:11:13.210Z,10.00
2022-09-13T15:13:43.388Z,10.50
2022-09-13T15:16:32.556Z,8.80
2022-09-13T15:19:41.478Z,11.50
2022-09-13T15:22:15.746Z,13.80
2022-09-13T15:24:47.644Z,10.10
2022-09-13T15:27:31.037Z,11.80
2022-09-13T15:30:04.454Z,10.30
2022-09-13T15:32:40.781Z,13.60
2022-09-13T15:35:30.686Z,10.60
2022-09-13T15:38:02.204Z,9.50
2022-09-13T15:40:43.519Z,9.20
2022-09-13T15:43:11.853Z,10.00
2022-09-13T15:45:40.181Z,9.50
2022-09-13T15:48:20.903Z,11.80
2022-09-13T15:51:13.736Z,17.80
2022-09-13T15:53:44.639Z,13.10
2022-09-13T15:56:18.142Z,12.30
2022-09-13T15:58:47.935Z,12.50
2022-09-13T16:01:18.650Z,11.70
2022-09-13T16:03:48.771Z,11.90
2022-09-13T16:06:19.545Z,11.30
2022-09-13T16:08:50.271Z,14.70
2022-09-13T16:11:18.817Z,13.90
2022-09-13T16:13:47.157Z,11.90
2022-09-13T16:16:15.705Z,12.70
2022-09-13T16:18:44.187Z,12.00
2022-09-13T16:21:12.637Z,13.00
2022-09-13T16:23:41.501Z,11.90
2022-09-13T16:26:11.288Z,14.00
2022-09-13T16:28:39.708Z,14.70
2022-09-13T16:31:08.645Z,12.90
2022-09-13T16:33:37.227Z,11.00
2022-09-13T16:36:05.819Z,12.10
2022-09-13T16:38:34.241Z,13.20
2022-09-13T16:41:05.910Z,13.80
2022-09-13T16:43:35.140Z,13.20
2022-09-13T16:46:13.968Z,12.30
2022-09-13T16:48:42.521Z,11.90
2022-09-13T16:51:13.482Z,13.00
2022-09-13T16:53:43.530Z,12.60
2022-09-13T16:56:15.740Z,13.80
2022-09-13T16:58:49.825Z,13.00
2022-09-13T17:01:24.552Z,15.90
2022-09-13T17:03:54.939Z,13.30
2022-09-13T17:06:26.108Z,12.30
2022-09-13T17:09:03.477Z,14.00
2022-09-13T17:11:35.845Z,18.80
2022-09-13T17:14:07.516Z,23.90
2022-09-13T17:16:40.212Z,28.20
2022-09-13T17:19:14.928Z,25.80
2022-09-13T17:21:43.249Z,15.90
2022-09-13T17:24:13.658Z,14.70
2022-09-13T17:26:44.470Z,15.50
2022-09-13T17:29:14.125Z,24.00
2022-09-13T17:31:43.671Z,19.50
2022-09-13T17:34:14.525Z,20.40
2022-09-13T17:36:43.174Z,15.10
2022-09-13T17:39:12.264Z,14.00
2022-09-13T17:41:41.147Z,14.00
2022-09-13T17:44:12.591Z,13.80
2022-09-13T17:46:41.148Z,16.10
2022-09-13T17:49:09.762Z,16.20
2022-09-13T17:51:39.137Z,17.20
2022-09-13T17:54:10.635Z,19.10
2022-09-13T17:56:45.445Z,15.20
2022-09-13T17:59:20.610Z,16.70
2022-09-13T18:01:53.403Z,14.90
2022-09-13T18:04:23.992Z,18.90
2022-09-13T18:06:54.121Z,18.30
2022-09-13T18:09:23.529Z,19.10
2022-09-13T18:11:52.228Z,19.10
2022-09-13T18:14:20.735Z,18.40
2022-09-13T18:16:55.840Z,18.40
2022-09-13T18:19:44.266Z,28.10
2022-09-13T18:22:13.296Z,25.80
2022-09-13T18:24:42.395Z,47.00
2022-09-13T18:27:10.963Z,30.00
2022-09-13T18:29:39.397Z,22.70
2022-09-13T18:32:08.408Z,21.40
2022-09-13T18:34:36.936Z,16.90
2022-09-13T18:37:05.457Z,16.90
2022-09-13T18:39:34.038Z,16.60
2022-09-13T18:42:03.098Z,16.50
2022-09-13T18:44:34.125Z,18.30
2022-09-13T18:47:04.287Z,17.20
2022-09-13T18:49:35.471Z,16.00
2022-09-13T18:52:04.176Z,18.00
2022-09-13T18:54:32.941Z,17.00
2022-09-13T18:57:01.365Z,17.40
2022-09-13T18:59:32.538Z,16.20
2022-09-13T19:02:01.309Z,14.90
2022-09-13T19:04:32.128Z,17.60
2022-09-13T19:07:02.837Z,19.70
2022-09-13T19:09:31.198Z,16.70
2022-09-13T19:11:59.764Z,18.30
2022-09-13T19:14:29.652Z,16.70
2022-09-13T19:17:04.934Z,17.60
2022-09-13T19:19:36.032Z,14.60
2022-09-13T19:22:05.369Z,20.80
2022-09-13T19:24:37.560Z,19.30
2022-09-13T19:27:06.059Z,22.00
2022-09-13T19:29:34.554Z,25.80
2022-09-13T19:32:03.277Z,33.80
2022-09-13T19:34:31.741Z,26.60
2022-09-13T19:37:00.218Z,30.50
2022-09-13T19:39:30.294Z,29.70
2022-09-13T19:42:01.339Z,31.30
2022-09-13T19:44:30.221Z,28.80
2022-09-13T19:47:45.060Z,23.60
2022-09-13T19:49:51.399Z,22.80
2022-09-13T19:52:21.267Z,24.10
2022-09-13T19:54:50.838Z,27.50
2022-09-13T19:57:19.318Z,30.50
2022-09-13T19:59:47.806Z,26.40
2022-09-13T20:02:16.780Z,22.70
2022-09-13T20:04:48.700Z,20.90
2022-09-13T20:07:17.264Z,19.30
2022-09-13T20:09:47.568Z,20.50
2022-09-13T20:12:16.167Z,19.60
2022-09-13T20:14:48.539Z,19.80
2022-09-13T20:17:17.221Z,16.80
2022-09-13T20:19:50.193Z,15.90
2022-09-13T20:22:20.128Z,19.20
2022-09-13T20:24:51.606Z,20.80
2022-09-13T20:27:20.097Z,19.10
2022-09-13T20:29:49.118Z,19.20
2022-09-13T20:32:19.098Z,19.20
2022-09-13T20:34:50.510Z,22.20
2022-09-13T20:37:19.500Z,19.30
2022-09-13T20:39:49.217Z,19.50
2022-09-13T20:42:18.251Z,20.20
2022-09-13T20:44:46.696Z,19.70
2022-09-13T20:47:15.125Z,19.10
2022-09-13T20:49:43.440Z,20.40
2022-09-13T20:52:13.648Z,18.60
2022-09-13T20:54:41.974Z,17.30
2022-09-13T20:57:11.098Z,17.80
2022-09-13T20:59:40.472Z,16.20
2022-09-13T21:02:10.179Z,16.50
2022-09-13T21:04:38.752Z,16.30
2022-09-13T21:07:26.297Z,15.70
2022-09-13T21:09:54.667Z,16.50
2022-09-13T21:12:24.410Z,16.80
2022-09-13T21:14:52.875Z,17.80
2022-09-13T21:17:22.606Z,19.10
2022-09-13T21:19:51.099Z,18.50
2022-09-13T21:22:21.509Z,18.40
2022-09-13T21:24:50.341Z,17.20
2022-09-13T21:27:19.286Z,15.40
2022-09-13T21:29:48.188Z,15.60
2022-09-13T21:32:16.687Z,16.20
2022-09-13T21:34:45.976Z,16.80
2022-09-13T21:37:14.430Z,16.60
2022-09-13T21:39:42.884Z,17.80
2022-09-13T21:42:11.453Z,17.20
2022-09-13T21:44:39.990Z,20.90
2022-09-13T21:47:08.364Z,15.90
2022-09-13T21:49:36.887Z,15.90
2022-09-13T21:52:05.427Z,17.80
2022-09-13T21:54:34.301Z,19.70
2022-09-13T21:57:02.711Z,17.30
2022-09-13T21:59:31.127Z,18.00
2022-09-13T22:02:00.295Z,15.50
2022-09-13T22:04:28.789Z,16.70
2022-09-13T22:06:57.433Z,20.00
2022-09-13T22:09:27.538Z,15.50
2022-09-13T22:11:57.068Z,20.60
2022-09-13T22:14:28.002Z,43.90
2022-09-13T22:17:01.909Z,40.40
2022-09-13T22:19:31.833Z,21.20
2022-09-13T22:22:00.713Z,18.40
2022-09-13T22:24:32.346Z,16.70
2022-09-13T22:27:01.371Z,18.80
2022-09-13T22:29:30.470Z,17.30
2022-09-13T22:31:58.893Z,20.00
2022-09-13T22:34:31.237Z,17.90
2022-09-13T22:37:00.502Z,16.90
2022-09-13T22:39:29.069Z,21.20
2022-09-13T22:41:57.627Z,21.20
2022-09-13T22:44:26.116Z,19.40
2022-09-13T22:46:54.876Z,19.60
2022-09-13T22:49:23.272Z,22.40
2022-09-13T22:51:51.991Z,19.90
2022-09-13T22:54:20.366Z,21.70
2022-09-13T22:56:49.128Z,23.50
2022-09-13T22:59:21.342Z,23.00
2022-09-13T23:01:50.920Z,19.40
2022-09-13T23:04:19.350Z,23.70
2022-09-13T23:06:48.220Z,23.00
2022-09-13T23:09:19.131Z,20.60
2022-09-13T23:11:47.948Z,18.60
2022-09-13T23:14:20.432Z,18.90
2022-09-13T23:16:52.193Z,20.20
2022-09-13T23:19:23.279Z,19.60
2022-09-13T23:21:53.830Z,20.60
2022-09-13T23:24:24.740Z,19.00
2022-09-13T23:26:56.631Z,18.60
2022-09-13T23:29:25.888Z,19.40
2022-09-13T23:31:54.943Z,20.70
2022-09-13T23:34:23.936Z,18.70
2022-09-13T23:36:52.983Z,19.50
2022-09-13T23:39:22.120Z,18.90
2022-09-13T23:41:52.130Z,18.50
2022-09-13T23:44:20.908Z,20.20
2022-09-13T23:46:50.129Z,17.70
2022-09-13T23:49:18.450Z,18.20
2022-09-13T23:51:46.948Z,16.50
2022-09-13T23:54:16.108Z,18.90
2022-09-13T23:56:44.645Z,16.60
2022-09-13T23:59:14.143Z,19.50
